Sunday, October 22, 2017, 8:35 PM EDT
Back to Local

KFWN, Sussex Airport

Location: Sussex, NJ, United States Lat: 41.2
Local Time: 8:35 PM EDT ( 0:35 GMT) Lon: -74.633
Time Zone: US/Eastern Elev: 419 ft

Show me the last for .
Show Decoded

2017-10-22 19:53 METAR KFWN 222353Z AUTO 00000KT 10SM CLR 13/09 A3035 RMK AO2 SLP279 T01330094
                 10250 20133 53007 =
2017-10-22 18:53 METAR KFWN 222253Z AUTO 00000KT 10SM CLR 16/09 A3034 RMK AO2 SLP276 T01560094 =
2017-10-22 17:53 METAR KFWN 222153Z AUTO 00000KT 10SM CLR 19/09 A3034 RMK AO2 SLP273 T01940089 =
2017-10-22 16:53 METAR KFWN 222053Z AUTO 21005KT 10SM CLR 23/06 A3033 RMK AO2 SLP270 T02280061
                 56006 =
2017-10-22 15:53 METAR KFWN 221953Z AUTO 18005KT 10SM CLR 24/06 A3034 RMK AO2 SLP273 T02390056 =
2017-10-22 14:53 METAR KFWN 221853Z AUTO 17005KT 10SM CLR 24/07 A3034 RMK AO2 SLP272 T02390067 =
2017-10-22 13:53 METAR KFWN 221753Z AUTO 22006KT 10SM CLR 24/08 A3035 RMK AO2 SLP276 60000
                 T02440083 10244 20039 58017 =
2017-10-22 12:53 METAR KFWN 221653Z AUTO VRB03KT 10SM CLR 23/08 A3038 RMK AO2 SLP285 T02280083 =
2017-10-22 11:53 METAR KFWN 221553Z AUTO 00000KT 10SM CLR 21/08 A3039 RMK AO2 SLP291 T02110078 =
2017-10-22 10:53 METAR KFWN 221453Z AUTO 00000KT 10SM CLR 17/11 A3040 RMK AO2 SLP294 60000
                 T01720111 58007 =
2017-10-22 09:53 METAR KFWN 221353Z AUTO 00000KT 10SM CLR 11/09 A3041 RMK AO2 RAB13E23 SLP299
                 P0000 T01060094 =
2017-10-22 08:53 METAR KFWN 221253Z AUTO 00000KT 10SM CLR 07/07 A3042 RMK AO2 RAB33E43 SLP303
                 P0000 T00720067 =
2017-10-22 07:53 METAR KFWN 221153Z AUTO 00000KT 10SM CLR 04/04 A3042 RMK AO2 RAB02E14 SLP302
                 P0000 60000 T00390039 10061 20033 53015 =
2017-10-22 06:53 METAR KFWN 221053Z AUTO 00000KT 10SM CLR 04/03 A3040 RMK AO2 SLP295 T00390033 =
2017-10-22 05:53 METAR KFWN 220953Z AUTO 00000KT 10SM CLR 04/04 A3039 RMK AO2 SLP291 T00390039 =
2017-10-22 04:53 METAR KFWN 220853Z AUTO 00000KT 10SM CLR 04/04 A3037 RMK AO2 SLP285 T00440039
                 53004 =
2017-10-22 03:53 METAR KFWN 220753Z AUTO 00000KT 10SM CLR 04/04 A3036 RMK AO2 SLP282 T00440044 =
2017-10-22 02:53 METAR KFWN 220653Z AUTO 00000KT 10SM CLR 05/05 A3037 RMK AO2 SLP283 T00500050 =
2017-10-22 01:53 METAR KFWN 220553Z AUTO 00000KT 10SM CLR 06/06 A3036 RMK AO2 SLP281 T00610056
                 10122 20056 58002 =
2017-10-22 00:53 METAR KFWN 220453Z AUTO 00000KT 10SM CLR 07/06 A3037 RMK AO2 SLP283 T00670061
                 402440028 =
2017-10-21 23:53 METAR KFWN 220353Z AUTO 00000KT 10SM CLR 07/07 A3037 RMK AO2 SLP284 T00720067 =
2017-10-21 22:53 METAR KFWN 220253Z AUTO 00000KT 10SM CLR 08/07 A3037 RMK AO2 SLP284 T00830072
                 51007 =
2017-10-21 21:53 METAR KFWN 220153Z AUTO 00000KT 10SM CLR 09/08 A3037 RMK AO2 SLP285 T00890083 =
2017-10-21 20:53 METAR KFWN 220053Z AUTO 00000KT 10SM CLR 09/08 A3036 RMK AO2 SLP281 T00940083 =

Support USWX by starting your Amazon purchase here.